Conroe's Hourly Summary for Friday, July 6, 2018
Hour Temp
(f)
RH
(%)
Solar Rad.
(MJ/m2)
Rainfall
(in)
Wind
(mph)
7/6/2018 12:00 AM 72 89 0 0 0.1
7/6/2018 1:00 AM 72 90 0 0.01 0.03
7/6/2018 2:00 AM 72 93 0 0 0.01
7/6/2018 3:00 AM 72 93 0 0 0.06
7/6/2018 4:00 AM 72 93 0 0.01 0
7/6/2018 5:00 AM 71 93 0 0 0.01
7/6/2018 6:00 AM 71 93 0.03 0 0
7/6/2018 7:00 AM 72 88 0.4 0 0.09
7/6/2018 8:00 AM 76 78 0.89 0 0.79
7/6/2018 9:00 AM 78 71 1.64 0 1.28
7/6/2018 10:00 AM 81 64 2.35 0 1.91
7/6/2018 11:00 AM 84 53 2.79 0.01 2.19
7/6/2018 12:00 PM 87 48 2.69 0 2.71
7/6/2018 1:00 PM 87 47 2.97 0 3.06
7/6/2018 2:00 PM 88 47 2.2 0 3.13
7/6/2018 3:00 PM 89 45 2.28 0 2.92
7/6/2018 4:00 PM 89 45 2.17 0 3.67
7/6/2018 5:00 PM 89 45 1.61 0 3.9
7/6/2018 6:00 PM 88 47 0.97 0 3.8
7/6/2018 7:00 PM 85 49 0.14 0 0.81
7/6/2018 8:00 PM 81 65 0.01 0 0.1
7/6/2018 9:00 PM 78 76 0 0 0
7/6/2018 10:00 PM 76 79 0 0 0
7/6/2018 11:00 PM 75 81 0 0 0.07
Data Summary 79 69 23.14 0.03 1.28